• Join FlightAware (Why Join?)
  • Login
  • US Flag 
10:49PM EDT


 

Airport Tracker/Info


-or-


 

Live Flight TrackerFlight Track Log ✈ GJS3627 ✈ 10-Sep-2013 ✈ KORD - KMCI

Flight Track Log - Related Links

Times and Time Zones

All times are in EDT time to prevent confusion due to time zone crossing. See the GJS3627 flight status page for this flight to view local times or setup timezone preferences in your user account.

Time Position Orientation Groundspeed Altitude Reporting Facility
EDT Latitude Longitude Course Direction KTS MPH feet Rate Location/Type
12:12PM 42.0000 -87.9667 270° West 160 184 2,200  Level Chicago TRACON
12:13PM 42.0000 -88.0167 270° West 197 227 4,000 2,160 Climbing Chicago TRACON
12:15PM 41.9825 -88.1681 261° West 234 269 7,600 2,340 Climbing Chicago Center
12:16PM 41.9797 -88.2658 268° West 260 299 10,200 2,400 Climbing Chicago Center
12:17PM 41.9758 -88.3633 267° West 263 303 12,600 2,220 Climbing Chicago Center
12:18PM 41.9744 -88.4700 269° West 281 323 14,800 1,620 Climbing Chicago Center
12:19PM 41.9497 -88.5731 252° West 296 341 16,000 780 Climbing Chicago Center
12:20PM 41.8800 -88.6794 229° Southwest 319 367 16,500 1,020 Climbing Chicago Center
12:21PM 41.8203 -88.7744 230° Southwest 335 386 18,200 1,320 Climbing Chicago Center
12:22PM 41.7611 -88.8769 232° Southwest 349 402 19,300 1,020 Climbing Chicago Center
12:23PM 41.7294 -89.0100 252° West 378 435 20,400 1,200 Climbing Chicago Center
12:24PM 41.6986 -89.1450 253° West 381 438 21,800 1,260 Climbing Chicago Center
12:25PM 41.6661 -89.2808 252° West 384 442 23,100 1,260 Climbing Chicago Center
12:26PM 41.6244 -89.4483 252° West 394 453 24,400 1,080 Climbing Chicago Center
12:27PM 41.5886 -89.5922 252° West 404 465 25,400 960 Climbing Chicago Center
12:28PM 41.5522 -89.7403 252° West 416 479 26,400 960 Climbing Chicago Center
12:29PM 41.5153 -89.8872 251° West 420 483 27,400 960 Climbing Chicago Center
12:30PM 41.4769 -90.0364 251° West 424 488 28,400 960 Climbing Chicago Center
12:31PM 41.4392 -90.1867 252° West 428 493 29,400 1,020 Climbing Chicago Center
12:32PM 41.3936 -90.3658 251° West 428 493 30,600 1,020 Climbing Chicago Center
12:33PM 41.3547 -90.5164 251° West 431 496 31,600 960 Climbing Chicago Center
12:34PM 41.2919 -90.6553 239° Southwest 443 510 32,600 1,020 Climbing Chicago Center
12:35PM 41.2278 -90.7889 237° Southwest 433 498 33,700 1,020 Climbing Chicago Center
12:36PM 41.1631 -90.9192 237° Southwest 426 490 34,700 960 Climbing Chicago Center
12:37PM 41.0989 -91.0494 237° Southwest 423 487 35,700 600 Climbing Chicago Center
12:38PM 41.0208 -91.2047 236° Southwest 423 487 36,000 120 Climbing Chicago Center
12:39PM 40.9619 -91.3247 237° Southwest 425 489 36,000  Level Chicago Center
12:40PM 40.8958 -91.4517 235° Southwest 425 489 36,000  Level Chicago Center
12:41PM 40.8308 -91.5825 237° Southwest 426 490 36,000  Level Chicago Center
12:42PM 40.7531 -91.7369 236° Southwest 424 488 36,000  Level Chicago Center
12:43PM 40.6878 -91.8650 236° Southwest 423 487 36,000  Level Chicago Center
12:44PM 40.6228 -91.9931 236° Southwest 424 488 36,000  Level Chicago Center
12:45PM 40.5581 -92.1197 236° Southwest 424 488 36,000  Level Kansas City Center
12:46PM 40.4792 -92.2719 236° Southwest 425 489 36,000 -240 Level Kansas City Center
12:48PM 40.4169 -92.3933 236° Southwest 424 488 35,600 -1,020 Descending Kansas City Center
12:49PM 40.3503 -92.5219 236° Southwest 425 489 34,000 -1,620 Descending Chicago Center
12:50PM 40.2842 -92.6481 236° Southwest 423 487 32,400 -1,800 Descending Chicago Center
12:51PM 40.2069 -92.7944 235° Southwest 429 494 30,400 -2,040 Descending Chicago Center
12:52PM 40.1378 -92.9250 235° Southwest 439 505 28,200 -2,220 Descending Chicago Center
12:53PM 40.0686 -93.0558 235° Southwest 442 509 25,800 -2,280 Descending Kansas City Center
12:54PM 39.9992 -93.1847 235° Southwest 439 505 23,400 -2,580 Descending Kansas City Center
12:55PM 39.9183 -93.3347 235° Southwest 428 493 20,500 -2,580 Descending Kansas City Center
12:56PM 39.8542 -93.4572 236° Southwest 418 481 18,100 -2,280 Descending Kansas City Center
12:57PM 39.7925 -93.5719 235° Southwest 399 459 15,900 -2,040 Descending Kansas City Center
12:58PM 39.7342 -93.6839 236° Southwest 383 441 14,000 -1,740 Descending Kansas City Center
12:59PM 39.6678 -93.8086 235° Southwest 358 412 12,300 -1,560 Descending Kansas City Center
01:00PM 39.6194 -93.8983 235° Southwest 318 366 10,800 -1,440 Descending Kansas City Center
01:01PM 39.5722 -93.9922 237° Southwest 281 323 9,400 -1,500 Descending Kansas City Center
01:02PM 39.5333 -94.0683 236° Southwest 266 306 7,700 -1,200 Descending Kansas City Center
01:03PM 39.5169 -94.1717 258° West 263 303 7,000 -780 Descending Kansas City Center
01:04PM 39.5053 -94.2611 260° West 263 303 6,200 -540 Descending Kansas City Center
01:05PM 39.4944 -94.3500 261° West 261 300 6,000 -180 Descending Kansas City Center
01:06PM 39.4819 -94.4531 261° West 260 299 5,900 -720 Descending Kansas City Center
01:07PM 39.4714 -94.5389 261° West 254 292 4,600 -1,380 Descending Kansas City Center
01:08PM 39.4314 -94.6203 238° Southwest 246 283 3,100 -1,020 Descending Kansas City Center
01:09PM 39.3953 -94.6728 228° Southwest 209 241 2,600 -600 Descending Kansas City Center
01:10PM 39.3553 -94.6878 196° South 131 151 1,900 -660 Descending Kansas City Center
01:11PM 39.3219 -94.6967 192° South 127 146 1,300 -600 Descending Kansas City Center
01:13PM 39.2976 -94.7139 191° South  Level Estimated
01:20PM 39.2976 -94.7139 191° South  Level Estimated